• Join FlightAware (Why Join?)
  • Login
  • US Flag 
10:36PM EST


 

Airport Tracker/Info


-or-


 

Live Flight TrackerFlight Track Log ✈ UAL3744 ✈ 24-Apr-2013 ✈ KCHS - KIAD

Flight Track Log - Related Links

Times and Time Zones

All times are in EDT time to prevent confusion due to time zone crossing. See the UAL3744 flight status page for this flight to view local times or setup timezone preferences in your user account.

Time Position Orientation Groundspeed Altitude Reporting Facility
EDT Latitude Longitude Course Direction KTS MPH feet Rate Location/Type
05:41AM 32.9958 -80.0072 13° North 232 267 4,300  Level Jacksonville Center
05:42AM 33.2092 -79.9415 13° North  Level FlightAware Approximate
05:42AM 33.0683 -79.9875 13° North 248 285 7,000  Level Jacksonville Center
05:43AM 33.3184 -79.9106 16° North  Level FlightAware Approximate
05:43AM 33.1367 -79.9678 14° North 270 311 10,000  Level Jacksonville Center
05:44AM 33.4264 -79.8745 16° North  Level FlightAware Approximate
05:44AM 33.2178 -79.9453 13° North 281 323 11,900  Level Jacksonville Center
05:45AM 33.5353 -79.8423 13° North  Level FlightAware Approximate
05:45AM 33.3047 -79.9228 12° North 302 348 14,500  Level Jacksonville Center
05:46AM 33.6445 -79.8111 13° North  Level FlightAware Approximate
05:46AM 33.4000 -79.8944 14° North 322 371 16,200  Level Jacksonville Center
05:47AM 33.5017 -79.8664 13° North 352 405 17,800 1,920 Climbing Jacksonville Center
05:48AM 33.6075 -79.8378 13° North 372 428 20,100 2,220 Climbing Jacksonville Center
05:49AM 33.7111 -79.8067 14° North 377 434 22,300 1,860 Climbing Jacksonville Center
05:50AM 33.8186 -79.7728 15° North 383 441 23,900 1,500 Climbing Jacksonville Center
05:51AM 33.9306 -79.7439 12° North 396 456 25,300 1,320 Climbing Jacksonville Center
05:52AM 34.0425 -79.7122 13° North 402 463 26,600 840 Climbing Jacksonville Center
05:53AM 34.1564 -79.6781 14° North 408 470 27,000 180 Climbing Jacksonville Center
05:54AM 34.2783 -79.6333 17° North 419 482 27,000  Level Jacksonville Center
05:55AM 34.4083 -79.5642 24° Northeast 409 471 27,100  Climbing Washington Center
05:56AM 34.5228 -79.5092 22° Northeast 427 491 27,100 -60 Level Washington Center
05:57AM 34.6375 -79.4464 24° Northeast 437 503 27,000  Descending Washington Center
05:58AM 34.7542 -79.3864 23° Northeast 442 509 27,100  Climbing Washington Center
05:59AM 34.8708 -79.3258 23° Northeast 442 509 27,000 -60 Descending Washington Center
06:00AM 34.9875 -79.2628 24° Northeast 447 514 27,000  Level Washington Center
06:01AM 35.1042 -79.2022 23° Northeast 442 509 27,000  Level Washington Center
06:02AM 35.2189 -79.1386 24° Northeast 442 509 27,100  Climbing Washington Center
06:03AM 35.3375 -79.0753 24° Northeast 447 514 27,000 -60 Descending Washington Center
06:04AM 35.4519 -79.0164 23° Northeast 447 514 27,000  Level Washington Center
06:05AM 35.5683 -78.9550 23° Northeast 447 514 27,000  Level Washington Center
06:06AM 35.6956 -78.8861 24° Northeast 447 514 27,000  Level Washington Center
06:07AM 35.8119 -78.8219 24° Northeast 447 514 27,000  Level Washington Center
06:08AM 35.9286 -78.7575 24° Northeast 447 514 27,000  Level Washington Center
06:09AM 36.0450 -78.6900 25° Northeast 447 514 27,000  Level Washington Center
06:10AM 36.1572 -78.6275 24° Northeast 447 514 27,000  Level Washington Center
06:11AM 36.2736 -78.5625 24° Northeast 447 514 27,000  Level Washington Center
06:12AM 36.3900 -78.4972 24° Northeast 447 514 27,000  Level Washington Center
06:13AM 36.5022 -78.4317 25° Northeast 447 514 27,000  Level Washington Center
06:14AM 36.6183 -78.3661 24° Northeast 447 514 27,000  Level Washington Center
06:15AM 36.7328 -78.2975 26° Northeast 447 514 27,000  Level Washington Center
06:16AM 36.8489 -78.2317 24° Northeast 447 514 27,100 -300 Climbing Washington Center
06:17AM 36.9378 -78.1775 26° Northeast 447 514 26,500 -1,260 Descending Washington Center
06:18AM 37.0728 -78.0986 25° Northeast 447 514 24,600 -1,620 Descending Washington Center
06:19AM 37.1869 -78.0347 24° Northeast 447 514 23,300 -840 Descending Washington Center
06:20AM 37.2967 -77.9703 25° Northeast 442 509 23,000 -180 Descending Washington Center
06:21AM 37.4064 -77.9083 24° Northeast 435 501 23,000 -960 Level Washington Center
06:22AM 37.5139 -77.8408 26° Northeast 429 494 21,100 -2,160 Descending Washington Center
06:23AM 37.6236 -77.7758 25° Northeast 429 494 18,700 -2,400 Descending Washington Center
06:24AM 37.7269 -77.7158 25° Northeast 424 488 16,400 -2,400 Descending Washington Center
06:25AM 37.8258 -77.6583 25° Northeast 405 466 13,900 -2,400 Descending Washington Center
06:26AM 37.9164 -77.6053 25° Northeast 376 433 11,600 -1,920 Descending Washington Center
06:27AM 38.0028 -77.5550 25° Northeast 357 411 10,100 -780 Descending Washington Center
06:28AM 38.0703 -77.5172 24° Northeast 324 373 10,100  Level Washington Center
06:29AM 38.1461 -77.4742 24° Northeast 300 345 10,100 -600 Level Washington Center
06:30AM 38.2217 -77.4286 25° Northeast 294 338 8,900 -1,320 Descending Washington Center
06:31AM 38.2911 -77.3881 25° Northeast 289 333 7,500 -1,320 Descending Washington Center
06:32AM 38.3583 -77.3553 21° North 276 318 6,300 -1,260 Descending Washington Center
06:33AM 38.4356 -77.3597 357° North 263 303 5,000 -1,140 Descending Washington Center
06:34AM 38.5125 -77.3642 357° North 263 303 4,100 -540 Descending Washington Center
06:35AM 38.5897 -77.3686 357° North 268 308 4,000 -60 Descending Washington Center
06:36AM 38.6500 -77.3667 North 275 316 4,000  Level Potomac TRACON
06:37AM 38.7333 -77.3500 North 275 316 4,000  Level Potomac TRACON
06:38AM 38.8167 -77.3500 360° North 275 316 4,000 -240 Level Potomac TRACON
06:39AM 38.9000 -77.3500 360° North 278 320 3,600 -540 Descending Potomac TRACON
06:40AM 38.9667 -77.3500 360° North 262 302 3,000 -540 Descending Potomac TRACON
06:41AM 39.0333 -77.3500 360° North 240 276 2,600 -360 Descending Potomac TRACON
06:42AM 39.0500 -77.4000 293° West 185 213 2,400 -540 Descending Potomac TRACON
06:43AM 39.0167 -77.4333 218° Southwest 127 146 1,600 -720 Descending Potomac TRACON
06:44AM 38.9833 -77.4333 180° South 119 137 1,000 -600 Descending Potomac TRACON